Ana Sayfa
METAR-TAF:

METAR-TAF

Havaalanları :

Tunus-Kartaca Uluslararası Havalimanı

Tunus, Tunus

Enlem: 36-50N, Boylam: 010-14E, yükseklik: 3 m

Güncel hava durumu gözlemi

Rapor saat 19:00 UTC de 23 dakika önce yapıldı.
Rüzgar kuzeydan 10 kt
Sıcaklık 24°C
Nem 61%
Basınç 1014 hPa
Görüş mesafesi 10 km veya daha fazla
2600 ft yükseklikte parçalı bulutlu

METAR: DTTA 251900Z 35010KT 9999 SCT026 24/16 Q1014 NOSIG

Saat: 20:23 (19:23 UTC)

Tahmin

Rapor saat 17:43 UTC de 1 saat ve 40 dakika önce yapıldı.
Ayın 25'si saat 18 UTC'den ayın 26'si saat 18 UTC'ye kadar geçerli Tahmin
Rüzgar kuzeydan 12 kt
Görüş mesafesi 10 km veya daha fazla
2600 ft yükseklikte parçalı bulutlu

TAF: DTTA 251743Z 2518/2618 01012KT 9999 SCT026

4.000'den fazla havaalanı için hava durumu gözlemleri ve tahminleri (METAR ve TAF raporları).

Kullanılabilir istasyonlar harita üzerinde sarı ve kırmızı noktalarla gösterilir.

İstasyonun adını görmek için fareyi noktanın üzerinde gezdirin.

Sonrasında hava gözlem ve tahminlerini görmek için tıklayın.

Haritayı değiştirmek için: yaklaştırmak için siyah artı işaretli yeşil düğmeye ve uzaklaştırmak için de eksi işaretli düğmeye hızla tıklayın; bitişik haritalar için yeşil okları kullanın.


METAR-TAF: